Lynchburg, VA (24513)

2:08 PM EDT on March 30, 2015 (GMT -0400)
Belleview | | Change Station
CLOSE
Current Station
Personal Weather Station
Location: Lynchburg, VA
Elevation: 807 ft
Nearby Weather Stations

Elev 807 ft 37.39 °N, 79.23 °W | Updated 29 seconds ago

Mostly Cloudy
Mostly Cloudy
63.1 °F
Feels Like 63.1 °F
N
3.4
Wind Variable Wind from NW
Gusts 9.8 mph

Today
High -- | Low -- °F
--% Chance of Precip.
Yesterday
High -- | Low -- °F
Precip. -- in
7:05 AM 7:37 PM
Waxing Gibbous, 81% visible
Pressure 29.95 in
Visibility 10.0 miles
Clouds Mostly Cloudy 6000 ft
Dew Point 30 °F
Humidity 29%
Rainfall 0.00 in
Snow Depth Not available.
UV 7.0 out of 12
Pollen 8.20 out of 12
Air Quality Not available.
Flu Activity Not available.
METAR KLYH 301754Z 28010G18KT 250V330 10SM BKN060 14/M01 A2995 RMK AO2 SLP141 T01441006 10150 20050 58009

More Conditions Fewer Conditions

Pressure 29.95 in
Visibility 10.0 miles
Clouds Mostly Cloudy 6000 ft
Dew Point 30 °F
Humidity 29%
Rainfall 0.00 in
Snow Depth Not available.
UV 7.0 out of 12
Pollen 8.20 out of 12
Air Quality Not available.
Flu Activity Not available.
METAR KLYH 301754Z 28010G18KT 250V330 10SM BKN060 14/M01 A2995 RMK AO2 SLP141 T01441006 10150 20050 58009

More Conditions Fewer Conditions

10-Day Weather Forecast

Almanac

Astronomy

Mar. 30, 2015 Rise Set
Actual Time
Civil Twilight
Nautical Twilight
Astronomical Twilight
Moon
Length of Visible Light
Length of Day
Tomorrow will be .
, % of the Moon is Illuminated

Today's Extremes

State Highs State Lows

Community

WunderPhotos

Upload Photos

1,809,559 photos uploaded!

WunderBlogs® & News

Nearby

Air Quality

  Air Quality AQ Index Pollutant
Not available.

Snow Depth

Station Depth Elevation

Earthquake Activity

City Distance Mag. Time & Date
Minimum magnitude displayed is 2.5.

Coastal Water Temperatures

Place Temperature

Stations

Nearby Weather Stations

Station Location Temp. Windchill Dew Point Humidity Wind Precip. Elev Updated Type